sensor_id;sensor_type;location;lat;lon;timestamp;P1;durP1;ratioP1;P2;durP2;ratioP2
52838;SDS011;39219;53.678;9.856;2022-09-09T00:00:23;73.10;;;31.48;;
52838;SDS011;39219;53.678;9.856;2022-09-09T00:02:53;79.30;;;32.90;;
52838;SDS011;39219;53.678;9.856;2022-09-09T00:05:29;84.57;;;33.50;;
52838;SDS011;39219;53.678;9.856;2022-09-09T00:08:02;80.95;;;33.83;;
52838;SDS011;39219;53.678;9.856;2022-09-09T00:10:31;75.40;;;31.80;;
52838;SDS011;39219;53.678;9.856;2022-09-09T00:13:02;71.50;;;29.65;;
52838;SDS011;39219;53.678;9.856;2022-09-09T00:15:43;71.95;;;30.73;;
52838;SDS011;39219;53.678;9.856;2022-09-09T00:18:20;67.13;;;30.35;;
52838;SDS011;39219;53.678;9.856;2022-09-09T00:20:52;71.72;;;30.23;;
52838;SDS011;39219;53.678;9.856;2022-09-09T00:23:24;70.47;;;29.85;;
52838;SDS011;39219;53.678;9.856;2022-09-09T00:25:56;65.57;;;29.08;;
52838;SDS011;39219;53.678;9.856;2022-09-09T00:28:29;72.72;;;30.55;;
52838;SDS011;39219;53.678;9.856;2022-09-09T00:30:59;67.43;;;29.42;;
52838;SDS011;39219;53.678;9.856;2022-09-09T00:33:36;85.63;;;31.45;;
52838;SDS011;39219;53.678;9.856;2022-09-09T00:36:07;72.63;;;29.85;;
52838;SDS011;39219;53.678;9.856;2022-09-09T00:38:41;78.13;;;29.90;;
52838;SDS011;39219;53.678;9.856;2022-09-09T00:41:11;70.20;;;29.30;;
52838;SDS011;39219;53.678;9.856;2022-09-09T00:43:46;67.80;;;29.48;;
52838;SDS011;39219;53.678;9.856;2022-09-09T00:46:28;72.03;;;29.63;;
52838;SDS011;39219;53.678;9.856;2022-09-09T00:49:18;66.70;;;30.15;;
52838;SDS011;39219;53.678;9.856;2022-09-09T00:51:55;85.60;;;29.73;;
52838;SDS011;39219;53.678;9.856;2022-09-09T00:54:34;71.05;;;29.58;;
52838;SDS011;39219;53.678;9.856;2022-09-09T00:57:12;78.97;;;29.17;;
52838;SDS011;39219;53.678;9.856;2022-09-09T00:59:46;70.63;;;28.90;;
52838;SDS011;39219;53.678;9.856;2022-09-09T01:02:16;69.07;;;28.42;;
52838;SDS011;39219;53.678;9.856;2022-09-09T01:04:54;69.40;;;29.55;;
52838;SDS011;39219;53.678;9.856;2022-09-09T01:07:24;73.40;;;29.80;;
52838;SDS011;39219;53.678;9.856;2022-09-09T01:09:51;63.90;;;28.45;;
52838;SDS011;39219;53.678;9.856;2022-09-09T01:12:24;76.70;;;28.77;;
52838;SDS011;39219;53.678;9.856;2022-09-09T01:14:56;65.80;;;28.38;;
52838;SDS011;39219;53.678;9.856;2022-09-09T01:17:34;61.28;;;26.67;;
52838;SDS011;39219;53.678;9.856;2022-09-09T01:20:19;71.35;;;28.05;;
52838;SDS011;39219;53.678;9.856;2022-09-09T01:22:55;65.50;;;28.45;;
52838;SDS011;39219;53.678;9.856;2022-09-09T01:26:02;69.75;;;27.85;;
52838;SDS011;39219;53.678;9.856;2022-09-09T01:28:36;66.28;;;29.33;;
52838;SDS011;39219;53.678;9.856;2022-09-09T01:31:05;65.32;;;28.77;;
52838;SDS011;39219;53.678;9.856;2022-09-09T01:33:34;70.82;;;29.20;;
52838;SDS011;39219;53.678;9.856;2022-09-09T01:36:02;67.47;;;28.17;;
52838;SDS011;39219;53.678;9.856;2022-09-09T01:38:33;65.05;;;27.77;;
52838;SDS011;39219;53.678;9.856;2022-09-09T01:41:02;59.63;;;26.88;;
52838;SDS011;39219;53.678;9.856;2022-09-09T01:43:29;78.75;;;28.95;;
52838;SDS011;39219;53.678;9.856;2022-09-09T01:45:58;64.70;;;27.80;;
52838;SDS011;39219;53.678;9.856;2022-09-09T01:48:27;86.68;;;30.02;;
52838;SDS011;39219;53.678;9.856;2022-09-09T01:50:54;76.35;;;29.83;;
52838;SDS011;39219;53.678;9.856;2022-09-09T01:53:21;69.55;;;27.85;;
52838;SDS011;39219;53.678;9.856;2022-09-09T01:55:49;63.28;;;27.98;;
52838;SDS011;39219;53.678;9.856;2022-09-09T01:58:31;56.40;;;25.90;;
52838;SDS011;39219;53.678;9.856;2022-09-09T02:01:02;66.57;;;28.90;;
52838;SDS011;39219;53.678;9.856;2022-09-09T02:03:36;61.72;;;26.90;;
52838;SDS011;39219;53.678;9.856;2022-09-09T02:06:05;61.13;;;27.27;;
52838;SDS011;39219;53.678;9.856;2022-09-09T02:08:42;229.50;;;31.50;;
52838;SDS011;39219;53.678;9.856;2022-09-09T02:11:12;281.60;;;32.38;;
52838;SDS011;39219;53.678;9.856;2022-09-09T02:13:42;71.50;;;25.73;;
52838;SDS011;39219;53.678;9.856;2022-09-09T02:16:12;134.35;;;27.35;;
52838;SDS011;39219;53.678;9.856;2022-09-09T02:18:44;150.50;;;28.33;;
52838;SDS011;39219;53.678;9.856;2022-09-09T02:21:16;167.63;;;28.42;;
52838;SDS011;39219;53.678;9.856;2022-09-09T02:23:43;56.25;;;25.15;;
52838;SDS011;39219;53.678;9.856;2022-09-09T02:26:12;145.65;;;27.17;;
52838;SDS011;39219;53.678;9.856;2022-09-09T02:28:46;48.05;;;24.35;;
52838;SDS011;39219;53.678;9.856;2022-09-09T02:31:14;51.42;;;24.20;;
52838;SDS011;39219;53.678;9.856;2022-09-09T02:33:42;48.45;;;24.58;;
52838;SDS011;39219;53.678;9.856;2022-09-09T02:36:11;44.60;;;23.83;;
52838;SDS011;39219;53.678;9.856;2022-09-09T02:38:42;69.32;;;23.67;;
52838;SDS011;39219;53.678;9.856;2022-09-09T02:41:15;45.83;;;23.17;;
52838;SDS011;39219;53.678;9.856;2022-09-09T02:43:42;44.25;;;22.30;;
52838;SDS011;39219;53.678;9.856;2022-09-09T02:46:12;39.33;;;20.77;;
52838;SDS011;39219;53.678;9.856;2022-09-09T02:48:51;40.10;;;20.50;;
52838;SDS011;39219;53.678;9.856;2022-09-09T02:53:58;56.85;;;22.67;;
52838;SDS011;39219;53.678;9.856;2022-09-09T02:56:33;43.75;;;21.67;;
52838;SDS011;39219;53.678;9.856;2022-09-09T02:59:05;45.72;;;22.35;;
52838;SDS011;39219;53.678;9.856;2022-09-09T03:01:33;66.90;;;23.08;;
52838;SDS011;39219;53.678;9.856;2022-09-09T03:04:00;42.92;;;21.23;;
52838;SDS011;39219;53.678;9.856;2022-09-09T03:06:28;38.05;;;20.42;;
52838;SDS011;39219;53.678;9.856;2022-09-09T03:08:54;39.20;;;21.15;;
52838;SDS011;39219;53.678;9.856;2022-09-09T03:11:22;39.17;;;20.70;;
52838;SDS011;39219;53.678;9.856;2022-09-09T03:13:49;134.23;;;24.17;;
52838;SDS011;39219;53.678;9.856;2022-09-09T03:16:16;41.60;;;22.02;;
52838;SDS011;39219;53.678;9.856;2022-09-09T03:18:44;49.70;;;22.15;;
52838;SDS011;39219;53.678;9.856;2022-09-09T03:21:11;42.70;;;21.10;;
52838;SDS011;39219;53.678;9.856;2022-09-09T03:23:37;56.67;;;21.17;;
52838;SDS011;39219;53.678;9.856;2022-09-09T03:26:03;61.90;;;22.02;;
52838;SDS011;39219;53.678;9.856;2022-09-09T03:28:30;45.80;;;21.30;;
52838;SDS011;39219;53.678;9.856;2022-09-09T03:30:58;97.05;;;24.15;;
52838;SDS011;39219;53.678;9.856;2022-09-09T03:33:25;55.83;;;20.55;;
52838;SDS011;39219;53.678;9.856;2022-09-09T03:35:54;44.22;;;20.67;;
52838;SDS011;39219;53.678;9.856;2022-09-09T03:38:21;43.17;;;21.25;;
52838;SDS011;39219;53.678;9.856;2022-09-09T03:40:49;49.78;;;20.23;;
52838;SDS011;39219;53.678;9.856;2022-09-09T03:43:16;85.07;;;20.25;;
52838;SDS011;39219;53.678;9.856;2022-09-09T03:45:44;62.65;;;21.13;;
52838;SDS011;39219;53.678;9.856;2022-09-09T03:48:12;38.35;;;19.30;;
52838;SDS011;39219;53.678;9.856;2022-09-09T03:50:39;37.85;;;20.45;;
52838;SDS011;39219;53.678;9.856;2022-09-09T03:53:06;36.50;;;19.45;;
52838;SDS011;39219;53.678;9.856;2022-09-09T03:55:33;37.63;;;20.00;;
52838;SDS011;39219;53.678;9.856;2022-09-09T03:58:00;33.50;;;17.75;;
52838;SDS011;39219;53.678;9.856;2022-09-09T04:00:26;36.05;;;18.83;;
52838;SDS011;39219;53.678;9.856;2022-09-09T04:02:54;90.47;;;21.63;;
52838;SDS011;39219;53.678;9.856;2022-09-09T04:05:22;34.58;;;18.73;;
52838;SDS011;39219;53.678;9.856;2022-09-09T04:07:49;32.90;;;17.77;;
52838;SDS011;39219;53.678;9.856;2022-09-09T04:10:17;53.88;;;17.63;;
52838;SDS011;39219;53.678;9.856;2022-09-09T04:12:44;52.53;;;18.27;;
52838;SDS011;39219;53.678;9.856;2022-09-09T04:15:11;49.95;;;18.35;;
52838;SDS011;39219;53.678;9.856;2022-09-09T04:17:37;32.13;;;17.75;;
52838;SDS011;39219;53.678;9.856;2022-09-09T04:20:04;38.08;;;17.92;;
52838;SDS011;39219;53.678;9.856;2022-09-09T04:22:32;33.75;;;18.13;;
52838;SDS011;39219;53.678;9.856;2022-09-09T04:24:59;36.03;;;18.95;;
52838;SDS011;39219;53.678;9.856;2022-09-09T04:27:26;40.55;;;19.35;;
52838;SDS011;39219;53.678;9.856;2022-09-09T04:29:54;35.83;;;19.55;;
52838;SDS011;39219;53.678;9.856;2022-09-09T04:32:21;40.13;;;20.42;;
52838;SDS011;39219;53.678;9.856;2022-09-09T04:34:48;40.55;;;19.02;;
52838;SDS011;39219;53.678;9.856;2022-09-09T04:37:14;41.28;;;18.92;;
52838;SDS011;39219;53.678;9.856;2022-09-09T04:39:41;40.25;;;19.95;;
52838;SDS011;39219;53.678;9.856;2022-09-09T04:42:08;40.63;;;19.73;;
52838;SDS011;39219;53.678;9.856;2022-09-09T04:44:35;39.65;;;20.10;;
52838;SDS011;39219;53.678;9.856;2022-09-09T04:47:02;40.05;;;19.17;;
52838;SDS011;39219;53.678;9.856;2022-09-09T04:49:28;39.40;;;19.63;;
52838;SDS011;39219;53.678;9.856;2022-09-09T04:51:56;42.67;;;20.58;;
52838;SDS011;39219;53.678;9.856;2022-09-09T04:54:22;37.13;;;19.00;;
52838;SDS011;39219;53.678;9.856;2022-09-09T04:56:50;39.28;;;19.50;;
52838;SDS011;39219;53.678;9.856;2022-09-09T04:59:16;37.50;;;18.80;;
52838;SDS011;39219;53.678;9.856;2022-09-09T05:01:44;37.95;;;18.58;;
52838;SDS011;39219;53.678;9.856;2022-09-09T05:04:11;37.95;;;19.05;;
52838;SDS011;39219;53.678;9.856;2022-09-09T05:06:37;37.40;;;18.65;;
52838;SDS011;39219;53.678;9.856;2022-09-09T05:09:03;37.67;;;19.33;;
52838;SDS011;39219;53.678;9.856;2022-09-09T05:11:30;33.90;;;18.25;;
52838;SDS011;39219;53.678;9.856;2022-09-09T05:14:01;35.95;;;17.95;;
52838;SDS011;39219;53.678;9.856;2022-09-09T05:16:27;31.67;;;16.67;;
52838;SDS011;39219;53.678;9.856;2022-09-09T05:18:55;30.83;;;16.27;;
52838;SDS011;39219;53.678;9.856;2022-09-09T05:21:22;33.05;;;17.27;;
52838;SDS011;39219;53.678;9.856;2022-09-09T05:23:50;32.72;;;17.20;;
52838;SDS011;39219;53.678;9.856;2022-09-09T05:26:17;31.70;;;17.50;;
52838;SDS011;39219;53.678;9.856;2022-09-09T05:28:45;33.72;;;18.27;;
52838;SDS011;39219;53.678;9.856;2022-09-09T05:31:12;33.50;;;17.95;;
52838;SDS011;39219;53.678;9.856;2022-09-09T05:33:40;31.75;;;17.40;;
52838;SDS011;39219;53.678;9.856;2022-09-09T05:36:10;34.22;;;17.45;;
52838;SDS011;39219;53.678;9.856;2022-09-09T05:38:38;30.70;;;16.27;;
52838;SDS011;39219;53.678;9.856;2022-09-09T05:41:05;31.77;;;17.08;;
52838;SDS011;39219;53.678;9.856;2022-09-09T05:43:32;29.35;;;16.45;;
52838;SDS011;39219;53.678;9.856;2022-09-09T05:46:01;29.52;;;16.15;;
52838;SDS011;39219;53.678;9.856;2022-09-09T05:48:29;30.60;;;16.42;;
52838;SDS011;39219;53.678;9.856;2022-09-09T05:50:57;27.50;;;15.20;;
52838;SDS011;39219;53.678;9.856;2022-09-09T05:53:25;31.30;;;16.67;;
52838;SDS011;39219;53.678;9.856;2022-09-09T05:55:57;27.08;;;14.98;;
52838;SDS011;39219;53.678;9.856;2022-09-09T05:58:25;27.85;;;15.95;;
52838;SDS011;39219;53.678;9.856;2022-09-09T06:00:51;25.77;;;15.23;;
52838;SDS011;39219;53.678;9.856;2022-09-09T06:03:20;24.95;;;14.32;;
52838;SDS011;39219;53.678;9.856;2022-09-09T06:05:56;27.38;;;14.68;;
52838;SDS011;39219;53.678;9.856;2022-09-09T06:08:24;23.95;;;13.90;;
52838;SDS011;39219;53.678;9.856;2022-09-09T06:10:51;23.77;;;14.15;;
52838;SDS011;39219;53.678;9.856;2022-09-09T06:13:17;23.20;;;13.18;;
52838;SDS011;39219;53.678;9.856;2022-09-09T06:15:48;21.42;;;12.82;;
52838;SDS011;39219;53.678;9.856;2022-09-09T06:18:16;20.20;;;12.68;;
52838;SDS011;39219;53.678;9.856;2022-09-09T06:20:43;21.60;;;11.73;;
52838;SDS011;39219;53.678;9.856;2022-09-09T06:23:09;18.58;;;11.40;;
52838;SDS011;39219;53.678;9.856;2022-09-09T06:25:38;16.45;;;9.88;;
52838;SDS011;39219;53.678;9.856;2022-09-09T06:28:05;16.27;;;10.65;;
52838;SDS011;39219;53.678;9.856;2022-09-09T06:30:32;16.55;;;10.25;;
52838;SDS011;39219;53.678;9.856;2022-09-09T06:32:58;16.05;;;9.88;;
52838;SDS011;39219;53.678;9.856;2022-09-09T06:35:24;14.27;;;9.32;;
52838;SDS011;39219;53.678;9.856;2022-09-09T06:37:51;14.02;;;8.27;;
52838;SDS011;39219;53.678;9.856;2022-09-09T06:40:18;15.35;;;8.32;;
52838;SDS011;39219;53.678;9.856;2022-09-09T06:42:45;12.57;;;7.63;;
52838;SDS011;39219;53.678;9.856;2022-09-09T06:45:13;11.25;;;7.20;;
52838;SDS011;39219;53.678;9.856;2022-09-09T06:47:39;12.93;;;7.05;;
52838;SDS011;39219;53.678;9.856;2022-09-09T06:50:06;11.30;;;6.85;;
52838;SDS011;39219;53.678;9.856;2022-09-09T06:52:33;12.02;;;7.05;;
52838;SDS011;39219;53.678;9.856;2022-09-09T06:54:59;10.35;;;6.75;;
52838;SDS011;39219;53.678;9.856;2022-09-09T06:57:26;11.63;;;6.93;;
52838;SDS011;39219;53.678;9.856;2022-09-09T06:59:53;13.38;;;7.03;;
52838;SDS011;39219;53.678;9.856;2022-09-09T07:02:20;10.68;;;6.88;;
52838;SDS011;39219;53.678;9.856;2022-09-09T07:04:46;13.52;;;6.40;;
52838;SDS011;39219;53.678;9.856;2022-09-09T07:07:15;9.60;;;6.03;;
52838;SDS011;39219;53.678;9.856;2022-09-09T07:09:42;9.95;;;5.70;;
52838;SDS011;39219;53.678;9.856;2022-09-09T07:12:10;10.52;;;5.80;;
52838;SDS011;39219;53.678;9.856;2022-09-09T07:14:38;10.35;;;5.80;;
52838;SDS011;39219;53.678;9.856;2022-09-09T07:17:06;9.88;;;5.32;;
52838;SDS011;39219;53.678;9.856;2022-09-09T07:19:32;13.25;;;5.80;;
52838;SDS011;39219;53.678;9.856;2022-09-09T07:21:59;9.15;;;5.60;;
52838;SDS011;39219;53.678;9.856;2022-09-09T07:24:27;14.13;;;5.55;;
52838;SDS011;39219;53.678;9.856;2022-09-09T07:26:55;11.43;;;5.75;;
52838;SDS011;39219;53.678;9.856;2022-09-09T07:29:21;11.68;;;6.00;;
52838;SDS011;39219;53.678;9.856;2022-09-09T07:31:47;11.57;;;5.60;;
52838;SDS011;39219;53.678;9.856;2022-09-09T07:34:15;9.10;;;5.18;;
52838;SDS011;39219;53.678;9.856;2022-09-09T07:36:42;9.07;;;5.07;;
52838;SDS011;39219;53.678;9.856;2022-09-09T07:39:09;7.45;;;5.03;;
52838;SDS011;39219;53.678;9.856;2022-09-09T07:41:38;8.02;;;4.85;;
52838;SDS011;39219;53.678;9.856;2022-09-09T07:44:07;9.00;;;5.07;;
52838;SDS011;39219;53.678;9.856;2022-09-09T07:46:36;9.95;;;5.10;;
52838;SDS011;39219;53.678;9.856;2022-09-09T07:49:04;8.85;;;5.07;;
52838;SDS011;39219;53.678;9.856;2022-09-09T07:51:33;9.63;;;5.28;;
52838;SDS011;39219;53.678;9.856;2022-09-09T07:54:02;9.77;;;4.97;;
52838;SDS011;39219;53.678;9.856;2022-09-09T07:56:30;10.70;;;5.65;;
52838;SDS011;39219;53.678;9.856;2022-09-09T07:58:58;8.00;;;5.30;;
52838;SDS011;39219;53.678;9.856;2022-09-09T08:01:25;9.10;;;5.35;;
52838;SDS011;39219;53.678;9.856;2022-09-09T08:03:54;8.82;;;5.38;;
52838;SDS011;39219;53.678;9.856;2022-09-09T08:06:23;8.38;;;5.13;;
52838;SDS011;39219;53.678;9.856;2022-09-09T08:08:52;9.52;;;5.15;;
52838;SDS011;39219;53.678;9.856;2022-09-09T08:11:20;10.00;;;4.93;;
52838;SDS011;39219;53.678;9.856;2022-09-09T08:13:48;9.80;;;5.18;;
52838;SDS011;39219;53.678;9.856;2022-09-09T08:16:17;7.45;;;4.60;;
52838;SDS011;39219;53.678;9.856;2022-09-09T08:18:46;7.53;;;4.28;;
52838;SDS011;39219;53.678;9.856;2022-09-09T08:21:14;8.27;;;4.82;;
52838;SDS011;39219;53.678;9.856;2022-09-09T08:23:43;8.13;;;4.50;;
52838;SDS011;39219;53.678;9.856;2022-09-09T08:26:12;8.98;;;4.55;;
52838;SDS011;39219;53.678;9.856;2022-09-09T08:28:40;9.35;;;4.40;;
52838;SDS011;39219;53.678;9.856;2022-09-09T08:31:08;8.07;;;4.40;;
52838;SDS011;39219;53.678;9.856;2022-09-09T08:33:36;9.68;;;4.57;;
52838;SDS011;39219;53.678;9.856;2022-09-09T08:36:04;7.10;;;4.18;;
52838;SDS011;39219;53.678;9.856;2022-09-09T08:38:31;8.13;;;4.47;;
52838;SDS011;39219;53.678;9.856;2022-09-09T08:40:59;8.13;;;4.68;;
52838;SDS011;39219;53.678;9.856;2022-09-09T08:43:34;10.13;;;4.70;;
52838;SDS011;39219;53.678;9.856;2022-09-09T08:46:02;10.05;;;5.47;;
52838;SDS011;39219;53.678;9.856;2022-09-09T08:48:39;9.55;;;5.43;;
52838;SDS011;39219;53.678;9.856;2022-09-09T08:51:14;8.88;;;5.43;;
52838;SDS011;39219;53.678;9.856;2022-09-09T08:53:41;7.05;;;5.18;;
52838;SDS011;39219;53.678;9.856;2022-09-09T08:56:11;9.18;;;4.93;;
52838;SDS011;39219;53.678;9.856;2022-09-09T08:58:43;11.07;;;5.15;;
52838;SDS011;39219;53.678;9.856;2022-09-09T09:01:17;7.75;;;4.57;;
52838;SDS011;39219;53.678;9.856;2022-09-09T09:03:54;8.70;;;4.90;;
52838;SDS011;39219;53.678;9.856;2022-09-09T09:06:28;9.68;;;5.38;;
52838;SDS011;39219;53.678;9.856;2022-09-09T09:09:07;8.57;;;4.65;;
52838;SDS011;39219;53.678;9.856;2022-09-09T09:11:43;7.97;;;4.68;;
52838;SDS011;39219;53.678;9.856;2022-09-09T09:14:15;8.68;;;4.80;;
52838;SDS011;39219;53.678;9.856;2022-09-09T09:19:17;7.00;;;4.63;;
52838;SDS011;39219;53.678;9.856;2022-09-09T09:21:44;8.48;;;4.82;;
52838;SDS011;39219;53.678;9.856;2022-09-09T09:24:16;6.22;;;4.35;;
52838;SDS011;39219;53.678;9.856;2022-09-09T09:26:45;6.93;;;4.20;;
52838;SDS011;39219;53.678;9.856;2022-09-09T09:29:13;8.35;;;4.70;;
52838;SDS011;39219;53.678;9.856;2022-09-09T09:31:43;7.45;;;4.10;;
52838;SDS011;39219;53.678;9.856;2022-09-09T09:34:14;6.55;;;3.83;;
52838;SDS011;39219;53.678;9.856;2022-09-09T09:36:42;5.93;;;3.88;;
52838;SDS011;39219;53.678;9.856;2022-09-09T09:39:21;6.22;;;4.00;;
52838;SDS011;39219;53.678;9.856;2022-09-09T09:41:49;7.97;;;3.97;;
52838;SDS011;39219;53.678;9.856;2022-09-09T09:44:23;5.47;;;3.35;;
52838;SDS011;39219;53.678;9.856;2022-09-09T09:46:52;7.07;;;3.53;;
52838;SDS011;39219;53.678;9.856;2022-09-09T09:49:19;6.05;;;3.28;;
52838;SDS011;39219;53.678;9.856;2022-09-09T09:51:45;7.68;;;3.47;;
52838;SDS011;39219;53.678;9.856;2022-09-09T09:54:17;5.70;;;3.85;;
52838;SDS011;39219;53.678;9.856;2022-09-09T09:56:48;4.80;;;3.00;;
52838;SDS011;39219;53.678;9.856;2022-09-09T09:59:24;6.65;;;2.90;;
52838;SDS011;39219;53.678;9.856;2022-09-09T10:02:06;5.10;;;2.83;;
52838;SDS011;39219;53.678;9.856;2022-09-09T10:04:43;5.28;;;2.50;;
52838;SDS011;39219;53.678;9.856;2022-09-09T10:07:11;6.70;;;2.90;;
52838;SDS011;39219;53.678;9.856;2022-09-09T10:09:38;3.28;;;2.00;;
52838;SDS011;39219;53.678;9.856;2022-09-09T10:12:07;3.08;;;1.48;;
52838;SDS011;39219;53.678;9.856;2022-09-09T10:14:47;3.08;;;1.52;;
52838;SDS011;39219;53.678;9.856;2022-09-09T10:17:22;5.20;;;2.30;;
52838;SDS011;39219;53.678;9.856;2022-09-09T10:20:04;4.03;;;1.58;;
52838;SDS011;39219;53.678;9.856;2022-09-09T10:22:45;2.00;;;1.70;;
52838;SDS011;39219;53.678;9.856;2022-09-09T10:25:25;2.35;;;1.50;;
52838;SDS011;39219;53.678;9.856;2022-09-09T10:28:11;3.00;;;1.45;;
52838;SDS011;39219;53.678;9.856;2022-09-09T10:30:59;3.70;;;1.52;;
52838;SDS011;39219;53.678;9.856;2022-09-09T10:33:36;3.20;;;1.50;;
52838;SDS011;39219;53.678;9.856;2022-09-09T10:36:13;4.57;;;1.67;;
52838;SDS011;39219;53.678;9.856;2022-09-09T10:38:45;2.88;;;1.63;;
52838;SDS011;39219;53.678;9.856;2022-09-09T10:41:19;3.03;;;1.48;;
52838;SDS011;39219;53.678;9.856;2022-09-09T10:44:12;1.92;;;1.15;;
52838;SDS011;39219;53.678;9.856;2022-09-09T10:46:51;1.53;;;1.10;;
52838;SDS011;39219;53.678;9.856;2022-09-09T10:49:45;4.05;;;1.40;;
52838;SDS011;39219;53.678;9.856;2022-09-09T10:52:27;3.75;;;1.70;;
52838;SDS011;39219;53.678;9.856;2022-09-09T10:54:59;3.13;;;1.25;;
52838;SDS011;39219;53.678;9.856;2022-09-09T10:57:36;2.08;;;1.05;;
52838;SDS011;39219;53.678;9.856;2022-09-09T11:00:14;1.65;;;0.90;;
52838;SDS011;39219;53.678;9.856;2022-09-09T11:02:44;3.40;;;1.10;;
52838;SDS011;39219;53.678;9.856;2022-09-09T11:05:17;2.90;;;1.23;;
52838;SDS011;39219;53.678;9.856;2022-09-09T11:07:47;2.95;;;1.08;;
52838;SDS011;39219;53.678;9.856;2022-09-09T11:10:20;2.88;;;1.50;;
52838;SDS011;39219;53.678;9.856;2022-09-09T11:12:50;4.00;;;1.20;;
52838;SDS011;39219;53.678;9.856;2022-09-09T11:15:23;7.88;;;1.80;;
52838;SDS011;39219;53.678;9.856;2022-09-09T11:17:57;2.58;;;1.30;;
52838;SDS011;39219;53.678;9.856;2022-09-09T11:20:27;2.90;;;1.40;;
52838;SDS011;39219;53.678;9.856;2022-09-09T11:22:54;1.90;;;1.38;;
52838;SDS011;39219;53.678;9.856;2022-09-09T11:25:27;2.58;;;1.20;;
52838;SDS011;39219;53.678;9.856;2022-09-09T11:28:03;3.85;;;1.23;;
52838;SDS011;39219;53.678;9.856;2022-09-09T11:30:44;2.47;;;1.40;;
52838;SDS011;39219;53.678;9.856;2022-09-09T11:33:26;3.60;;;1.50;;
52838;SDS011;39219;53.678;9.856;2022-09-09T11:36:13;2.33;;;1.50;;
52838;SDS011;39219;53.678;9.856;2022-09-09T11:38:52;3.35;;;1.50;;
52838;SDS011;39219;53.678;9.856;2022-09-09T11:41:23;1.85;;;1.40;;
52838;SDS011;39219;53.678;9.856;2022-09-09T11:43:50;3.55;;;1.65;;
52838;SDS011;39219;53.678;9.856;2022-09-09T11:46:18;4.18;;;1.77;;
52838;SDS011;39219;53.678;9.856;2022-09-09T11:48:58;2.67;;;1.80;;
52838;SDS011;39219;53.678;9.856;2022-09-09T11:51:26;2.00;;;1.50;;
52838;SDS011;39219;53.678;9.856;2022-09-09T11:53:55;3.92;;;1.85;;
52838;SDS011;39219;53.678;9.856;2022-09-09T11:56:24;3.92;;;1.63;;
52838;SDS011;39219;53.678;9.856;2022-09-09T11:58:57;3.90;;;1.55;;
52838;SDS011;39219;53.678;9.856;2022-09-09T12:01:29;3.17;;;2.22;;
52838;SDS011;39219;53.678;9.856;2022-09-09T12:04:05;3.33;;;1.88;;
52838;SDS011;39219;53.678;9.856;2022-09-09T12:06:54;4.72;;;1.40;;
52838;SDS011;39219;53.678;9.856;2022-09-09T12:09:25;5.90;;;1.75;;
52838;SDS011;39219;53.678;9.856;2022-09-09T12:14:55;3.47;;;1.77;;
52838;SDS011;39219;53.678;9.856;2022-09-09T12:17:47;4.28;;;2.05;;
52838;SDS011;39219;53.678;9.856;2022-09-09T12:20:18;5.22;;;2.08;;
52838;SDS011;39219;53.678;9.856;2022-09-09T12:22:51;4.40;;;1.98;;
52838;SDS011;39219;53.678;9.856;2022-09-09T12:25:33;15.85;;;2.17;;
52838;SDS011;39219;53.678;9.856;2022-09-09T12:28:11;4.32;;;2.00;;
52838;SDS011;39219;53.678;9.856;2022-09-09T12:30:45;5.72;;;1.83;;
52838;SDS011;39219;53.678;9.856;2022-09-09T12:33:19;7.38;;;1.73;;
52838;SDS011;39219;53.678;9.856;2022-09-09T12:35:50;4.40;;;1.88;;
52838;SDS011;39219;53.678;9.856;2022-09-09T12:38:22;3.13;;;1.50;;
52838;SDS011;39219;53.678;9.856;2022-09-09T12:40:58;4.32;;;1.52;;
52838;SDS011;39219;53.678;9.856;2022-09-09T12:43:25;8.98;;;2.03;;
52838;SDS011;39219;53.678;9.856;2022-09-09T12:45:53;4.10;;;1.42;;
52838;SDS011;39219;53.678;9.856;2022-09-09T12:48:25;4.45;;;1.70;;
52838;SDS011;39219;53.678;9.856;2022-09-09T12:51:01;3.15;;;1.42;;
52838;SDS011;39219;53.678;9.856;2022-09-09T12:53:29;3.40;;;1.50;;
52838;SDS011;39219;53.678;9.856;2022-09-09T12:55:58;4.85;;;2.00;;
52838;SDS011;39219;53.678;9.856;2022-09-09T12:58:27;5.75;;;2.80;;
52838;SDS011;39219;53.678;9.856;2022-09-09T13:00:57;4.70;;;2.50;;
52838;SDS011;39219;53.678;9.856;2022-09-09T13:03:25;7.45;;;2.40;;
52838;SDS011;39219;53.678;9.856;2022-09-09T13:05:52;6.00;;;2.40;;
52838;SDS011;39219;53.678;9.856;2022-09-09T13:08:21;5.68;;;2.40;;
52838;SDS011;39219;53.678;9.856;2022-09-09T13:10:49;6.15;;;2.50;;
52838;SDS011;39219;53.678;9.856;2022-09-09T13:13:19;5.80;;;2.20;;
52838;SDS011;39219;53.678;9.856;2022-09-09T13:15:48;4.55;;;2.20;;
52838;SDS011;39219;53.678;9.856;2022-09-09T13:18:16;4.00;;;2.17;;
52838;SDS011;39219;53.678;9.856;2022-09-09T13:20:47;4.38;;;2.60;;
52838;SDS011;39219;53.678;9.856;2022-09-09T13:23:14;3.72;;;2.45;;
52838;SDS011;39219;53.678;9.856;2022-09-09T13:25:53;4.90;;;2.58;;
52838;SDS011;39219;53.678;9.856;2022-09-09T13:28:22;5.32;;;2.80;;
52838;SDS011;39219;53.678;9.856;2022-09-09T13:30:57;6.43;;;3.33;;
52838;SDS011;39219;53.678;9.856;2022-09-09T13:33:31;5.20;;;3.10;;
52838;SDS011;39219;53.678;9.856;2022-09-09T13:35:59;6.18;;;2.42;;
52838;SDS011;39219;53.678;9.856;2022-09-09T13:38:29;3.97;;;1.95;;
52838;SDS011;39219;53.678;9.856;2022-09-09T13:41:01;3.42;;;1.85;;
52838;SDS011;39219;53.678;9.856;2022-09-09T13:43:30;5.30;;;2.50;;
52838;SDS011;39219;53.678;9.856;2022-09-09T13:46:00;4.97;;;2.78;;
52838;SDS011;39219;53.678;9.856;2022-09-09T13:48:28;3.45;;;2.67;;
52838;SDS011;39219;53.678;9.856;2022-09-09T13:50:57;5.88;;;3.45;;
52838;SDS011;39219;53.678;9.856;2022-09-09T13:53:25;6.82;;;4.20;;
52838;SDS011;39219;53.678;9.856;2022-09-09T13:55:51;6.90;;;3.88;;
52838;SDS011;39219;53.678;9.856;2022-09-09T13:58:20;5.60;;;3.20;;
52838;SDS011;39219;53.678;9.856;2022-09-09T14:00:47;5.60;;;2.80;;
52838;SDS011;39219;53.678;9.856;2022-09-09T14:03:14;4.57;;;2.47;;
52838;SDS011;39219;53.678;9.856;2022-09-09T14:05:41;2.90;;;2.10;;
52838;SDS011;39219;53.678;9.856;2022-09-09T14:08:10;4.93;;;2.50;;
52838;SDS011;39219;53.678;9.856;2022-09-09T14:10:47;5.28;;;2.22;;
52838;SDS011;39219;53.678;9.856;2022-09-09T14:13:14;3.70;;;2.30;;
52838;SDS011;39219;53.678;9.856;2022-09-09T14:15:42;4.57;;;2.33;;
52838;SDS011;39219;53.678;9.856;2022-09-09T14:18:09;3.35;;;2.20;;
52838;SDS011;39219;53.678;9.856;2022-09-09T14:20:38;3.30;;;2.40;;
52838;SDS011;39219;53.678;9.856;2022-09-09T14:23:05;4.43;;;2.50;;
52838;SDS011;39219;53.678;9.856;2022-09-09T14:25:31;4.30;;;2.78;;
52838;SDS011;39219;53.678;9.856;2022-09-09T14:27:58;4.80;;;2.70;;
52838;SDS011;39219;53.678;9.856;2022-09-09T14:30:24;6.93;;;2.97;;
52838;SDS011;39219;53.678;9.856;2022-09-09T14:32:52;6.63;;;3.20;;
52838;SDS011;39219;53.678;9.856;2022-09-09T14:35:19;5.60;;;3.20;;
52838;SDS011;39219;53.678;9.856;2022-09-09T14:37:45;7.30;;;3.60;;
52838;SDS011;39219;53.678;9.856;2022-09-09T14:40:12;5.10;;;3.55;;
52838;SDS011;39219;53.678;9.856;2022-09-09T14:42:39;7.93;;;3.72;;
52838;SDS011;39219;53.678;9.856;2022-09-09T14:45:06;8.05;;;4.15;;
52838;SDS011;39219;53.678;9.856;2022-09-09T14:47:33;6.85;;;3.95;;
52838;SDS011;39219;53.678;9.856;2022-09-09T14:50:01;7.97;;;4.10;;
52838;SDS011;39219;53.678;9.856;2022-09-09T14:52:29;7.63;;;4.68;;
52838;SDS011;39219;53.678;9.856;2022-09-09T14:54:56;5.30;;;4.15;;
52838;SDS011;39219;53.678;9.856;2022-09-09T14:57:22;5.53;;;4.07;;
52838;SDS011;39219;53.678;9.856;2022-09-09T14:59:49;7.82;;;4.88;;
52838;SDS011;39219;53.678;9.856;2022-09-09T15:02:16;8.27;;;4.82;;